createdAt,value
2023-03-16T07:03:29.819Z,6.62
2023-03-16T07:05:56.955Z,6.81
2023-03-16T07:08:24.307Z,6.95
2023-03-16T07:10:52.040Z,7.02
2023-03-16T07:13:18.837Z,7.11
2023-03-16T07:15:45.613Z,7.20
2023-03-16T07:18:12.375Z,7.93
2023-03-16T07:20:39.135Z,8.13
2023-03-16T07:23:05.880Z,7.94
2023-03-16T07:25:32.588Z,7.66
2023-03-16T07:27:59.319Z,7.52
2023-03-16T07:30:26.555Z,7.58
2023-03-16T07:32:53.596Z,7.60
2023-03-16T07:35:21.637Z,7.28
2023-03-16T07:37:48.454Z,7.39
2023-03-16T07:40:16.355Z,7.38
2023-03-16T07:42:44.484Z,7.21
2023-03-16T07:45:13.313Z,7.65
2023-03-16T07:47:40.002Z,7.96
2023-03-16T07:50:08.865Z,7.91
2023-03-16T07:52:37.495Z,8.36
2023-03-16T07:55:05.373Z,8.72
2023-03-16T07:57:32.048Z,8.96
2023-03-16T07:59:59.287Z,9.01
2023-03-16T08:02:26.162Z,9.46
2023-03-16T08:04:52.902Z,9.61
2023-03-16T08:07:19.638Z,9.17
2023-03-16T08:09:46.392Z,8.91
2023-03-16T08:12:13.249Z,9.07
2023-03-16T08:14:39.982Z,8.87
2023-03-16T08:17:07.492Z,9.19
2023-03-16T08:19:34.541Z,9.70
2023-03-16T08:22:02.265Z,10.36
2023-03-16T08:24:29.616Z,10.86
2023-03-16T08:26:57.578Z,10.80
2023-03-16T08:29:25.505Z,10.94
2023-03-16T08:31:57.908Z,11.04
2023-03-16T08:34:25.036Z,11.55
2023-03-16T08:36:51.799Z,10.82
2023-03-16T08:39:18.613Z,10.44
2023-03-16T08:41:47.015Z,10.96
2023-03-16T08:44:13.795Z,11.43
2023-03-16T08:46:40.848Z,12.04
2023-03-16T08:49:08.783Z,12.59
2023-03-16T08:51:35.577Z,12.73
2023-03-16T08:54:02.582Z,12.37
2023-03-16T08:56:30.699Z,12.65
2023-03-16T08:58:57.616Z,12.79
2023-03-16T09:01:25.813Z,13.41
2023-03-16T09:03:52.848Z,13.06
2023-03-16T09:06:20.000Z,13.17
2023-03-16T09:08:47.792Z,13.77
2023-03-16T09:11:18.803Z,13.73
2023-03-16T09:13:46.009Z,13.72
2023-03-16T09:16:13.970Z,14.45
2023-03-16T09:18:42.202Z,14.65
2023-03-16T09:21:13.201Z,14.71
2023-03-16T09:23:42.642Z,14.91
2023-03-16T09:26:10.638Z,15.11
2023-03-16T09:28:38.896Z,14.89
2023-03-16T09:31:07.112Z,15.04
2023-03-16T09:33:35.281Z,14.55
2023-03-16T09:36:02.900Z,15.07
2023-03-16T09:38:30.738Z,15.43
2023-03-16T09:41:02.964Z,15.75
2023-03-16T09:43:32.861Z,16.07
2023-03-16T09:46:00.070Z,16.63
2023-03-16T09:48:29.313Z,16.96
2023-03-16T09:50:56.682Z,17.15
2023-03-16T09:53:36.140Z,16.62
2023-03-16T09:56:10.537Z,16.91
2023-03-16T09:58:37.328Z,16.92
2023-03-16T10:01:24.257Z,16.83
2023-03-16T10:04:13.691Z,15.10
2023-03-16T10:07:03.463Z,14.76
2023-03-16T10:09:53.303Z,15.08
2023-03-16T10:12:21.462Z,15.30
2023-03-16T10:14:54.519Z,14.83
2023-03-16T10:17:29.107Z,15.54
2023-03-16T10:20:09.094Z,16.58
2023-03-16T10:22:41.001Z,17.55
2023-03-16T10:25:16.566Z,17.59
2023-03-16T10:27:46.102Z,17.78
2023-03-16T10:30:19.822Z,16.80
2023-03-16T10:32:47.362Z,17.26
2023-03-16T10:35:38.405Z,17.35
2023-03-16T10:38:08.247Z,17.82
2023-03-16T10:40:39.237Z,17.57
2023-03-16T10:43:13.379Z,18.30
2023-03-16T10:45:42.752Z,18.98
2023-03-16T10:48:14.979Z,19.03
2023-03-16T10:50:50.046Z,17.62
2023-03-16T10:53:20.788Z,17.74
2023-03-16T10:55:48.423Z,19.09
2023-03-16T10:58:27.513Z,18.32
2023-03-16T11:00:55.152Z,17.68
2023-03-16T11:03:32.267Z,18.59
2023-03-16T11:06:04.916Z,18.19
2023-03-16T11:08:37.426Z,18.64
2023-03-16T11:11:13.508Z,17.01
2023-03-16T11:13:45.355Z,15.33
2023-03-16T11:16:26.001Z,15.38
2023-03-16T11:18:59.205Z,17.19
2023-03-16T11:21:50.916Z,18.73
2023-03-16T11:24:33.363Z,19.05
2023-03-16T11:27:03.246Z,19.28
2023-03-16T11:29:36.029Z,18.99
2023-03-16T11:32:12.319Z,19.65
2023-03-16T11:34:40.984Z,20.56
2023-03-16T11:37:42.576Z,21.26
2023-03-16T11:40:29.575Z,21.71
2023-03-16T11:43:02.775Z,22.31
2023-03-16T11:45:43.195Z,23.28
2023-03-16T11:48:25.349Z,24.20
2023-03-16T11:51:02.778Z,24.52
2023-03-16T11:53:33.190Z,24.36
2023-03-16T11:56:29.038Z,24.96
2023-03-16T11:59:11.157Z,25.58
2023-03-16T12:02:02.676Z,26.11
2023-03-16T12:04:47.679Z,26.16
2023-03-16T12:07:24.598Z,26.14
2023-03-16T12:10:26.081Z,26.72
2023-03-16T12:13:04.831Z,26.77
2023-03-16T12:15:36.104Z,26.58
2023-03-16T12:18:10.915Z,24.20
2023-03-16T12:20:57.827Z,24.33
2023-03-16T12:23:30.450Z,23.27
2023-03-16T12:25:59.869Z,24.09
2023-03-16T12:28:29.119Z,22.75
2023-03-16T12:31:21.029Z,22.97
2023-03-16T12:33:57.001Z,24.08
2023-03-16T12:36:29.658Z,23.56
2023-03-16T12:39:05.417Z,23.61
2023-03-16T12:42:11.421Z,22.50
2023-03-16T12:44:49.931Z,24.21
2023-03-16T12:47:33.700Z,25.39
2023-03-16T12:50:27.334Z,26.33
2023-03-16T12:52:54.411Z,26.41
2023-03-16T12:55:33.563Z,24.66
2023-03-16T12:58:06.344Z,23.66
2023-03-16T13:00:40.551Z,23.16
2023-03-16T13:03:15.430Z,25.11
2023-03-16T13:06:00.857Z,26.70
2023-03-16T13:08:29.005Z,27.60
2023-03-16T13:11:09.249Z,28.42
2023-03-16T13:14:01.844Z,28.46
2023-03-16T13:16:32.305Z,28.63
2023-03-16T13:18:59.412Z,29.16
2023-03-16T13:21:26.092Z,25.69
2023-03-16T13:23:58.372Z,27.07
2023-03-16T13:26:47.513Z,28.10
2023-03-16T13:29:22.239Z,26.75
2023-03-16T13:31:49.976Z,24.67
2023-03-16T13:34:23.315Z,26.06
2023-03-16T13:36:53.865Z,27.65
2023-03-16T13:39:31.524Z,25.64
2023-03-16T13:42:14.945Z,26.84
2023-03-16T13:44:42.011Z,27.52
2023-03-16T13:47:13.862Z,28.89
2023-03-16T13:49:47.380Z,29.27
2023-03-16T13:52:29.968Z,29.97
2023-03-16T13:54:58.377Z,31.04
2023-03-16T13:57:28.460Z,30.66
2023-03-16T14:00:18.825Z,31.32
2023-03-16T14:02:47.213Z,31.53
2023-03-16T14:05:20.440Z,31.44
2023-03-16T14:07:48.702Z,28.87
2023-03-16T14:10:17.153Z,29.03
2023-03-16T14:12:58.162Z,30.31
2023-03-16T14:15:28.678Z,30.07
2023-03-16T14:18:08.366Z,30.15
2023-03-16T14:20:41.248Z,31.12
2023-03-16T14:23:24.522Z,31.14
2023-03-16T14:25:53.556Z,31.07
2023-03-16T14:28:27.462Z,31.57
2023-03-16T14:31:02.265Z,31.80
2023-03-16T14:33:31.911Z,31.02
2023-03-16T14:36:00.831Z,31.32
2023-03-16T14:38:33.516Z,30.44
2023-03-16T14:41:23.637Z,30.86
2023-03-16T14:43:54.277Z,30.92
2023-03-16T14:46:28.466Z,30.73
2023-03-16T14:49:24.902Z,31.10
2023-03-16T14:51:55.086Z,31.11
2023-03-16T14:54:22.478Z,30.87
2023-03-16T14:56:54.698Z,29.87
2023-03-16T14:59:22.039Z,30.71
2023-03-16T15:01:50.359Z,31.08
2023-03-16T15:04:21.285Z,31.25
2023-03-16T15:06:48.445Z,31.53
2023-03-16T15:09:31.474Z,30.64
2023-03-16T15:11:58.346Z,30.72
2023-03-16T15:14:43.668Z,30.42
2023-03-16T15:17:10.980Z,28.94
2023-03-16T15:19:37.829Z,28.90
2023-03-16T15:22:05.077Z,29.38
2023-03-16T15:24:33.304Z,28.63
2023-03-16T15:27:00.638Z,29.22
2023-03-16T15:29:27.328Z,28.65
2023-03-16T15:31:54.762Z,28.88
2023-03-16T15:34:22.714Z,28.93
2023-03-16T15:36:49.731Z,27.68
2023-03-16T15:39:25.085Z,26.39
2023-03-16T15:41:51.887Z,23.86
2023-03-16T15:44:18.667Z,22.95
2023-03-16T15:46:45.457Z,20.96
2023-03-16T15:49:12.289Z,18.93
2023-03-16T15:51:39.046Z,17.43
2023-03-16T15:54:08.527Z,16.33
2023-03-16T15:56:52.659Z,15.17
2023-03-16T15:59:20.642Z,14.53
2023-03-16T16:01:48.444Z,13.65
2023-03-16T16:04:19.685Z,13.16
2023-03-16T16:06:47.828Z,12.59
2023-03-16T16:09:14.699Z,12.26
2023-03-16T16:11:41.866Z,11.87
2023-03-16T16:14:13.295Z,11.51
2023-03-16T16:16:40.733Z,11.24
2023-03-16T16:19:13.271Z,10.99
2023-03-16T16:21:40.058Z,10.64
2023-03-16T16:24:07.087Z,10.44
2023-03-16T16:26:53.740Z,10.10
2023-03-16T16:29:24.067Z,9.98
2023-03-16T16:31:54.330Z,9.88
2023-03-16T16:34:24.548Z,9.70
2023-03-16T16:36:52.068Z,9.53
2023-03-16T16:39:18.808Z,9.36
2023-03-16T16:41:46.026Z,9.19
2023-03-16T16:44:21.610Z,8.94
2023-03-16T16:46:50.350Z,8.73
2023-03-16T16:49:22.520Z,8.55
2023-03-16T16:51:49.297Z,8.36
2023-03-16T16:54:19.000Z,8.20
2023-03-16T16:56:46.552Z,8.05
2023-03-16T16:59:22.830Z,7.86
2023-03-16T17:01:57.415Z,7.70
2023-03-16T17:04:27.471Z,7.57
2023-03-16T17:06:58.847Z,7.32
2023-03-16T17:09:27.223Z,7.17
2023-03-16T17:11:56.182Z,7.00
2023-03-16T17:14:23.998Z,6.91
2023-03-16T17:16:51.846Z,6.81
2023-03-16T17:19:22.481Z,6.72
2023-03-16T17:21:50.951Z,6.63
2023-03-16T17:24:17.732Z,6.42
2023-03-16T17:26:50.407Z,6.31
2023-03-16T17:29:17.568Z,6.25
2023-03-16T17:31:44.270Z,6.21
2023-03-16T17:34:19.894Z,6.13
2023-03-16T17:36:46.887Z,6.10
2023-03-16T17:39:28.325Z,6.08
2023-03-16T17:41:57.678Z,6.05
2023-03-16T17:44:25.491Z,6.00
2023-03-16T17:46:53.009Z,5.92
2023-03-16T17:49:20.637Z,5.86
2023-03-16T17:51:47.877Z,5.77
2023-03-16T17:54:14.625Z,5.72
2023-03-16T17:56:41.802Z,5.68
2023-03-16T17:59:20.424Z,5.60
2023-03-16T18:01:47.332Z,5.53
2023-03-16T18:04:18.190Z,5.49
2023-03-16T18:06:47.532Z,5.47
2023-03-16T18:09:15.846Z,5.43
2023-03-16T18:11:48.008Z,5.41
2023-03-16T18:14:37.079Z,5.32
2023-03-16T18:17:15.934Z,5.16
2023-03-16T18:19:43.860Z,4.99
2023-03-16T18:22:19.313Z,4.80
2023-03-16T18:24:46.869Z,4.70
2023-03-16T18:27:13.941Z,4.64
2023-03-16T18:29:41.993Z,4.53
2023-03-16T18:32:21.610Z,4.27
2023-03-16T18:34:48.550Z,4.22
2023-03-16T18:37:24.435Z,4.11
2023-03-16T18:39:52.707Z,4.03
2023-03-16T18:42:21.658Z,3.95
2023-03-16T18:44:48.932Z,3.93
2023-03-16T18:47:20.772Z,3.65
2023-03-16T18:49:49.439Z,3.65
2023-03-16T18:52:19.975Z,3.67
2023-03-16T18:54:48.168Z,3.65
2023-03-16T18:57:18.686Z,3.59
2023-03-16T18:59:45.653Z,3.54
2023-03-16T19:02:41.543Z,3.42
2023-03-16T19:05:13.654Z,3.35
2023-03-16T19:07:42.388Z,3.31
2023-03-16T19:10:21.441Z,3.25
2023-03-16T19:12:48.883Z,3.24
2023-03-16T19:15:22.649Z,3.27
2023-03-16T19:17:49.820Z,3.48
2023-03-16T19:20:18.450Z,3.62
2023-03-16T19:22:46.649Z,3.66
2023-03-16T19:25:24.819Z,3.69
2023-03-16T19:27:51.970Z,3.70
2023-03-16T19:30:30.576Z,3.70
2023-03-16T19:32:58.098Z,3.56
2023-03-16T19:35:44.323Z,3.50
2023-03-16T19:38:14.284Z,3.44
2023-03-16T19:40:41.556Z,3.37
2023-03-16T19:43:27.172Z,3.26
2023-03-16T19:45:56.256Z,3.16
2023-03-16T19:48:33.239Z,3.08
2023-03-16T19:51:00.944Z,3.00
2023-03-16T19:53:27.696Z,2.86
2023-03-16T19:55:54.604Z,2.77
2023-03-16T19:58:31.205Z,2.70
2023-03-16T20:00:58.974Z,2.65
2023-03-16T20:03:26.159Z,2.59
2023-03-16T20:05:53.367Z,2.51
2023-03-16T20:08:25.706Z,2.46
2023-03-16T20:10:55.048Z,2.34
2023-03-16T20:13:22.180Z,2.32
2023-03-16T20:15:48.897Z,2.26
2023-03-16T20:18:17.180Z,2.18
2023-03-16T20:20:44.651Z,2.12
2023-03-16T20:23:18.929Z,2.05
2023-03-16T20:25:46.649Z,1.98
2023-03-16T20:28:19.726Z,1.89
2023-03-16T20:30:47.731Z,1.85
2023-03-16T20:33:18.702Z,1.74
2023-03-16T20:35:46.297Z,1.75
2023-03-16T20:38:14.327Z,1.73
2023-03-16T20:40:44.904Z,1.74
2023-03-16T20:43:24.557Z,1.70
2023-03-16T20:45:53.483Z,1.67
2023-03-16T20:48:20.506Z,1.62
2023-03-16T20:50:47.974Z,1.59
2023-03-16T20:53:14.694Z,1.55
2023-03-16T20:55:41.649Z,1.55
2023-03-16T20:58:28.081Z,1.43
2023-03-16T21:00:58.268Z,1.39
2023-03-16T21:03:28.331Z,1.38
2023-03-16T21:05:58.438Z,1.36
2023-03-16T21:08:26.345Z,1.31
2023-03-16T21:10:53.725Z,1.35
2023-03-16T21:13:31.348Z,1.34
2023-03-16T21:15:59.733Z,1.30
2023-03-16T21:18:26.647Z,1.30
2023-03-16T21:20:53.728Z,1.21
2023-03-16T21:23:22.653Z,1.20
2023-03-16T21:25:58.551Z,1.18
2023-03-16T21:28:27.777Z,1.10
2023-03-16T21:30:57.447Z,1.09
2023-03-16T21:33:27.086Z,1.07
2023-03-16T21:35:53.822Z,1.05
2023-03-16T21:38:21.005Z,1.01
2023-03-16T21:40:48.209Z,0.95
2023-03-16T21:43:15.660Z,0.96
2023-03-16T21:45:43.113Z,0.85
2023-03-16T21:48:17.859Z,0.82
2023-03-16T21:50:44.816Z,0.86
2023-03-16T21:53:22.911Z,0.85
2023-03-16T21:55:51.619Z,0.91
2023-03-16T21:58:18.788Z,0.89
2023-03-16T22:00:46.804Z,0.84
2023-03-16T22:03:49.420Z,0.80
2023-03-16T22:06:16.910Z,0.71
2023-03-16T22:08:44.024Z,0.69
2023-03-16T22:11:22.401Z,0.67
2023-03-16T22:13:51.986Z,0.63
2023-03-16T22:16:21.019Z,0.61
2023-03-16T22:18:49.686Z,0.63
2023-03-16T22:21:28.966Z,0.60
2023-03-16T22:23:56.493Z,0.54
2023-03-16T22:26:23.684Z,0.48
2023-03-16T22:28:53.236Z,0.51
2023-03-16T22:31:25.978Z,0.50
2023-03-16T22:33:52.674Z,0.43
2023-03-16T22:36:21.150Z,0.38
2023-03-16T22:38:59.832Z,0.35
2023-03-16T22:41:26.733Z,0.35
2023-03-16T22:43:54.141Z,0.29
2023-03-16T22:46:26.609Z,0.27
2023-03-16T22:49:52.549Z,0.24
2023-03-16T22:52:19.759Z,0.27
2023-03-16T22:54:46.625Z,0.17
2023-03-16T22:57:14.450Z,0.19
2023-03-16T22:59:41.941Z,0.21
2023-03-16T23:02:14.868Z,0.20
2023-03-16T23:04:41.951Z,0.21
2023-03-16T23:07:12.068Z,0.15
2023-03-16T23:09:39.114Z,0.08
2023-03-16T23:12:14.213Z,0.02
2023-03-16T23:14:41.347Z,-0.07
2023-03-16T23:17:18.632Z,-0.09
2023-03-16T23:19:45.958Z,-0.10
2023-03-16T23:22:12.757Z,-0.15
2023-03-16T23:24:39.862Z,-0.16
2023-03-16T23:27:22.273Z,-0.19
2023-03-16T23:29:49.182Z,-0.22
2023-03-16T23:32:18.902Z,-0.29
2023-03-16T23:34:46.040Z,-0.29
2023-03-16T23:37:12.759Z,-0.31
2023-03-16T23:39:40.105Z,-0.33
2023-03-16T23:42:07.236Z,-0.34
2023-03-16T23:44:34.036Z,-0.36
2023-03-16T23:47:00.918Z,-0.37
2023-03-16T23:49:30.609Z,-0.40
2023-03-16T23:51:58.070Z,-0.42
2023-03-16T23:54:28.305Z,-0.43
2023-03-16T23:56:55.592Z,-0.49
2023-03-16T23:59:23.526Z,-0.54
